createdAt,value
2019-04-10T00:00:35.731Z,11.90
2019-04-10T00:02:10.587Z,11.92
2019-04-10T00:03:44.825Z,11.92
2019-04-10T00:05:19.864Z,11.93
2019-04-10T00:07:07.806Z,11.93
2019-04-10T00:08:30.534Z,11.93
2019-04-10T00:10:06.164Z,11.92
2019-04-10T00:11:40.986Z,11.92
2019-04-10T00:13:15.341Z,11.92
2019-04-10T00:14:50.530Z,11.92
2019-04-10T00:16:24.810Z,11.91
2019-04-10T00:17:59.854Z,11.90
2019-04-10T00:19:35.735Z,11.90
2019-04-10T00:21:11.270Z,11.89
2019-04-10T00:22:46.545Z,11.89
2019-04-10T00:24:21.958Z,11.90
2019-04-10T00:25:57.269Z,11.90
2019-04-10T00:27:31.738Z,11.91
2019-04-10T00:29:05.969Z,11.90
2019-04-10T00:30:40.979Z,11.88
2019-04-10T00:32:16.114Z,11.90
2019-04-10T00:33:51.378Z,11.90
2019-04-10T00:35:25.792Z,11.92
2019-04-10T00:37:01.668Z,11.91
2019-04-10T00:38:37.958Z,11.92
2019-04-10T00:40:12.387Z,11.92
2019-04-10T00:41:46.223Z,11.92
2019-04-10T00:43:20.687Z,11.91
2019-04-10T00:44:54.949Z,11.90
2019-04-10T00:46:30.388Z,11.90
2019-04-10T00:48:05.779Z,11.87
2019-04-10T00:49:40.355Z,11.86
2019-04-10T00:51:15.206Z,11.87
2019-04-10T00:52:49.708Z,11.88
2019-04-10T00:54:24.260Z,11.87
2019-04-10T00:55:58.556Z,11.87
2019-04-10T00:57:33.752Z,11.88
2019-04-10T00:59:08.934Z,11.89
2019-04-10T01:00:43.744Z,11.88
2019-04-10T01:02:18.557Z,11.89
2019-04-10T01:03:53.907Z,11.88
2019-04-10T01:05:28.432Z,11.87
2019-04-10T01:07:04.123Z,11.88
2019-04-10T01:08:38.683Z,11.87
2019-04-10T01:10:14.287Z,11.86
2019-04-10T01:11:49.679Z,11.86
2019-04-10T01:13:25.025Z,11.85
2019-04-10T01:15:00.189Z,11.86
2019-04-10T01:16:35.582Z,11.86
2019-04-10T01:18:10.951Z,11.86
2019-04-10T01:19:45.357Z,11.86
2019-04-10T01:21:19.989Z,11.87
2019-04-10T01:22:55.246Z,11.85
2019-04-10T01:24:30.098Z,11.83
2019-04-10T01:26:05.191Z,11.85
2019-04-10T01:27:41.035Z,11.84
2019-04-10T01:29:15.714Z,11.84
2019-04-10T01:30:50.742Z,11.82
2019-04-10T01:32:25.820Z,11.81
2019-04-10T01:34:01.037Z,11.80
2019-04-10T01:35:35.479Z,11.79
2019-04-10T01:37:10.415Z,11.79
2019-04-10T01:38:44.744Z,11.78
2019-04-10T01:40:19.186Z,11.78
2019-04-10T01:41:54.747Z,11.75
2019-04-10T01:43:29.286Z,11.74
2019-04-10T01:45:04.963Z,11.74
2019-04-10T01:46:40.229Z,11.71
2019-04-10T01:48:15.405Z,11.69
2019-04-10T01:49:50.348Z,11.70
2019-04-10T01:51:25.553Z,11.70
2019-04-10T01:53:00.126Z,11.70
2019-04-10T01:54:35.367Z,11.71
2019-04-10T01:56:21.238Z,11.71
2019-04-10T01:57:46.683Z,11.71
2019-04-10T01:59:23.625Z,11.72
2019-04-10T02:01:08.358Z,11.72
2019-04-10T02:02:47.778Z,11.72
2019-04-10T02:04:22.774Z,11.72
2019-04-10T02:05:57.243Z,11.73
2019-04-10T02:07:31.920Z,11.73
2019-04-10T02:09:09.393Z,11.73
2019-04-10T02:10:44.622Z,11.73
2019-04-10T02:12:19.147Z,11.74
2019-04-10T02:13:54.024Z,11.74
2019-04-10T02:15:28.775Z,11.75
2019-04-10T02:17:04.182Z,11.75
2019-04-10T02:18:38.858Z,11.75
2019-04-10T02:20:14.620Z,11.76
2019-04-10T02:21:49.754Z,11.77
2019-04-10T02:23:24.221Z,11.78
2019-04-10T02:24:59.528Z,11.77
2019-04-10T02:26:33.954Z,11.77
2019-04-10T02:28:09.002Z,11.76
2019-04-10T02:29:43.961Z,11.75
2019-04-10T02:31:22.010Z,11.76
2019-04-10T02:32:57.931Z,11.76
2019-04-10T02:34:32.788Z,11.76
2019-04-10T02:36:08.449Z,11.74
2019-04-10T02:37:43.434Z,11.76
2019-04-10T02:39:27.626Z,11.78
2019-04-10T02:40:55.601Z,11.77
2019-04-10T02:42:30.279Z,11.76
2019-04-10T02:44:05.143Z,11.77
2019-04-10T02:45:40.381Z,11.76
2019-04-10T02:47:16.753Z,11.77
2019-04-10T02:48:51.975Z,11.76
2019-04-10T02:50:27.291Z,11.77
2019-04-10T02:52:01.782Z,11.77
2019-04-10T02:53:37.389Z,11.76
2019-04-10T02:55:12.025Z,11.78
2019-04-10T02:56:47.786Z,11.79
2019-04-10T02:58:22.439Z,11.79
2019-04-10T02:59:57.683Z,11.80
2019-04-10T03:01:33.397Z,11.81
2019-04-10T03:03:07.846Z,11.82
2019-04-10T03:04:42.516Z,11.81
2019-04-10T03:06:18.892Z,11.82
2019-04-10T03:07:53.246Z,11.83
2019-04-10T03:09:41.801Z,11.83
2019-04-10T03:11:06.607Z,11.84
2019-04-10T03:12:41.014Z,11.85
2019-04-10T03:14:16.831Z,11.85
2019-04-10T03:15:51.836Z,11.86
2019-04-10T03:17:26.410Z,11.86
2019-04-10T03:19:01.245Z,11.87
2019-04-10T03:20:35.681Z,11.87
2019-04-10T03:22:10.485Z,11.86
2019-04-10T03:23:45.454Z,11.85
2019-04-10T03:25:21.146Z,11.85
2019-04-10T03:26:56.194Z,11.86
2019-04-10T03:28:31.974Z,11.87
2019-04-10T03:30:08.296Z,11.87
2019-04-10T03:31:45.072Z,11.86
2019-04-10T03:33:24.584Z,11.87
2019-04-10T03:34:58.562Z,11.86
2019-04-10T03:36:37.880Z,11.86
2019-04-10T03:38:12.557Z,11.87
2019-04-10T03:39:46.913Z,11.87
2019-04-10T03:41:21.212Z,11.88
2019-04-10T03:42:55.482Z,11.88
2019-04-10T03:44:30.451Z,11.89
2019-04-10T03:46:05.429Z,11.91
2019-04-10T03:47:39.828Z,11.92
2019-04-10T03:49:14.133Z,11.89
2019-04-10T03:50:48.805Z,11.87
2019-04-10T03:52:25.261Z,11.88
2019-04-10T03:54:00.571Z,11.88
2019-04-10T03:55:35.279Z,11.89
2019-04-10T03:57:10.114Z,11.89
2019-04-10T03:58:44.643Z,11.88
2019-04-10T04:00:20.891Z,11.88
2019-04-10T04:01:55.517Z,11.89
2019-04-10T04:03:30.794Z,11.90
2019-04-10T04:05:06.639Z,11.92
2019-04-10T04:06:42.048Z,11.91
2019-04-10T04:08:16.345Z,11.92
2019-04-10T04:09:51.573Z,11.91
2019-04-10T04:11:26.087Z,11.89
2019-04-10T04:13:01.494Z,11.90
2019-04-10T04:14:36.686Z,11.90
2019-04-10T04:16:11.371Z,11.90
2019-04-10T04:17:46.492Z,11.89
2019-04-10T04:19:21.795Z,11.89
2019-04-10T04:20:56.337Z,11.89
2019-04-10T04:22:30.767Z,11.89
2019-04-10T04:24:05.096Z,11.89
2019-04-10T04:25:39.388Z,11.90
2019-04-10T04:27:15.236Z,11.92
2019-04-10T04:28:50.191Z,11.92
2019-04-10T04:30:24.717Z,11.92
2019-04-10T04:31:59.160Z,11.94
2019-04-10T04:33:34.072Z,11.95
2019-04-10T04:35:09.188Z,11.96
2019-04-10T04:36:43.424Z,11.95
2019-04-10T04:38:17.878Z,11.96
2019-04-10T04:39:52.234Z,11.96
2019-04-10T04:41:27.391Z,11.95
2019-04-10T04:43:01.693Z,11.96
2019-04-10T04:44:35.922Z,11.95
2019-04-10T04:46:10.226Z,11.96
2019-04-10T04:47:44.984Z,11.96
2019-04-10T04:49:19.312Z,11.97
2019-04-10T04:50:54.421Z,11.97
2019-04-10T04:52:29.215Z,11.97
2019-04-10T04:54:04.551Z,11.94
2019-04-10T04:55:39.451Z,11.95
2019-04-10T04:57:14.915Z,11.96
2019-04-10T04:58:49.683Z,11.95
2019-04-10T05:00:25.689Z,11.97
2019-04-10T05:02:01.244Z,11.98
2019-04-10T05:03:37.555Z,11.99
2019-04-10T05:05:11.923Z,12.00
2019-04-10T05:06:47.713Z,11.97
2019-04-10T05:08:23.687Z,11.97
2019-04-10T05:10:00.220Z,11.96
2019-04-10T05:11:34.384Z,11.96
2019-04-10T05:13:08.789Z,11.95
2019-04-10T05:14:44.030Z,11.96
2019-04-10T05:16:18.658Z,11.97
2019-04-10T05:17:53.543Z,11.98
2019-04-10T05:19:28.198Z,11.99
2019-04-10T05:21:03.057Z,12.01
2019-04-10T05:22:37.425Z,12.02
2019-04-10T05:24:11.753Z,12.03
2019-04-10T05:25:46.247Z,12.04
2019-04-10T05:27:20.555Z,12.05
2019-04-10T05:28:54.991Z,12.04
2019-04-10T05:30:29.247Z,12.03
2019-04-10T05:32:03.709Z,12.00
2019-04-10T05:33:38.708Z,11.99
2019-04-10T05:35:12.993Z,12.01
2019-04-10T05:36:47.276Z,12.00
2019-04-10T05:38:22.807Z,11.95
2019-04-10T05:39:57.174Z,11.90
2019-04-10T05:41:31.513Z,11.87
2019-04-10T05:43:05.917Z,11.87
2019-04-10T05:44:40.426Z,11.91
2019-04-10T05:46:16.536Z,11.90
2019-04-10T05:47:51.167Z,11.90
2019-04-10T05:49:25.448Z,11.87
2019-04-10T05:51:04.345Z,11.87
2019-04-10T05:52:35.996Z,11.88
2019-04-10T05:54:10.581Z,11.88
2019-04-10T05:55:47.239Z,11.92
2019-04-10T05:57:24.513Z,11.93
2019-04-10T05:58:58.849Z,11.93
2019-04-10T06:00:34.847Z,11.92
2019-04-10T06:02:09.394Z,11.91
2019-04-10T06:03:45.590Z,11.92
2019-04-10T06:05:20.595Z,11.96
2019-04-10T06:06:56.865Z,12.00
2019-04-10T06:08:31.240Z,12.08
2019-04-10T06:10:10.227Z,12.13
2019-04-10T06:11:45.611Z,12.19
2019-04-10T06:13:19.985Z,12.22
2019-04-10T06:14:54.655Z,12.28
2019-04-10T06:16:30.325Z,12.36
2019-04-10T06:18:04.991Z,12.43
2019-04-10T06:19:40.469Z,12.46
2019-04-10T06:21:15.018Z,12.51
2019-04-10T06:22:50.617Z,12.54
2019-04-10T06:24:25.310Z,12.57
2019-04-10T06:26:00.519Z,12.55
2019-04-10T06:27:34.955Z,12.57
2019-04-10T06:29:10.546Z,12.62
2019-04-10T06:30:45.171Z,12.65
2019-04-10T06:32:19.464Z,12.69
2019-04-10T06:33:53.754Z,12.69
2019-04-10T06:35:28.316Z,12.73
2019-04-10T06:37:03.939Z,12.75
2019-04-10T06:38:39.151Z,12.73
2019-04-10T06:40:19.219Z,12.73
2019-04-10T06:41:50.624Z,12.69
2019-04-10T06:43:25.283Z,12.64
2019-04-10T06:45:01.012Z,12.62
2019-04-10T06:46:37.608Z,12.62
2019-04-10T06:48:11.472Z,12.63
2019-04-10T06:49:46.092Z,12.65
2019-04-10T06:51:21.594Z,12.64
2019-04-10T06:52:56.889Z,12.64
2019-04-10T06:54:31.699Z,12.64
2019-04-10T06:56:06.892Z,12.64
2019-04-10T06:57:49.193Z,12.63
2019-04-10T06:59:17.376Z,12.61
2019-04-10T07:00:54.573Z,12.61
2019-04-10T07:02:30.836Z,12.59
2019-04-10T07:04:07.625Z,12.61
2019-04-10T07:05:49.385Z,12.61
2019-04-10T07:07:20.275Z,12.63
2019-04-10T07:08:53.390Z,12.65
2019-04-10T07:10:37.201Z,12.71
2019-04-10T07:12:04.742Z,12.72
2019-04-10T07:13:40.451Z,12.74
2019-04-10T07:15:22.103Z,12.73
2019-04-10T07:16:52.894Z,12.72
2019-04-10T07:18:28.292Z,12.69
2019-04-10T07:20:03.758Z,12.67
2019-04-10T07:21:38.648Z,12.66
2019-04-10T07:23:14.532Z,12.69
2019-04-10T07:24:51.397Z,12.68
2019-04-10T07:26:35.392Z,12.64
2019-04-10T07:28:02.871Z,12.64
2019-04-10T07:29:38.323Z,12.63
2019-04-10T07:31:15.481Z,12.61
2019-04-10T07:32:50.814Z,12.59
2019-04-10T07:34:27.899Z,12.57
2019-04-10T07:36:04.281Z,12.56
2019-04-10T07:37:37.334Z,12.55
2019-04-10T07:39:13.043Z,12.55
2019-04-10T07:40:47.419Z,12.53
2019-04-10T07:42:29.388Z,12.52
2019-04-10T07:43:58.301Z,12.51
2019-04-10T07:45:35.409Z,12.51
2019-04-10T07:47:09.083Z,12.50
2019-04-10T07:48:43.556Z,12.49
2019-04-10T07:50:20.510Z,12.51
2019-04-10T07:51:54.735Z,12.51
2019-04-10T07:53:28.964Z,12.52
2019-04-10T07:55:04.393Z,12.54
2019-04-10T07:56:39.593Z,12.55
2019-04-10T07:58:15.219Z,12.56
2019-04-10T07:59:49.758Z,12.57
2019-04-10T08:01:24.267Z,12.58
2019-04-10T08:02:59.487Z,12.59
2019-04-10T08:04:35.321Z,12.60
2019-04-10T08:06:09.770Z,12.62
2019-04-10T08:07:45.211Z,12.65
2019-04-10T08:09:20.743Z,12.68
2019-04-10T08:10:55.561Z,12.71
2019-04-10T08:12:39.455Z,12.73
2019-04-10T08:14:08.207Z,12.78
2019-04-10T08:15:41.698Z,12.79
2019-04-10T08:17:21.787Z,12.81
2019-04-10T08:18:57.826Z,12.86
2019-04-10T08:20:32.696Z,12.91
2019-04-10T08:22:08.569Z,12.92
2019-04-10T08:23:43.174Z,12.97
2019-04-10T08:25:18.462Z,13.05
2019-04-10T08:26:52.899Z,13.12
2019-04-10T08:28:30.467Z,13.19
2019-04-10T08:30:03.483Z,13.27
2019-04-10T08:31:37.702Z,13.39
2019-04-10T08:33:14.058Z,13.58
2019-04-10T08:34:49.800Z,13.77
2019-04-10T08:36:25.585Z,13.85
2019-04-10T08:38:01.205Z,13.97
2019-04-10T08:39:41.668Z,14.04
2019-04-10T08:41:13.162Z,14.17
2019-04-10T08:42:47.649Z,14.29
2019-04-10T08:44:22.239Z,14.44
2019-04-10T08:45:56.904Z,14.60
2019-04-10T08:47:31.411Z,14.75
2019-04-10T08:49:05.898Z,14.89
2019-04-10T08:50:40.194Z,14.94
2019-04-10T08:52:16.550Z,15.10
2019-04-10T08:53:53.642Z,15.22
2019-04-10T08:55:28.148Z,15.37
2019-04-10T08:57:03.273Z,15.43
2019-04-10T08:58:37.797Z,15.43
2019-04-10T09:00:12.416Z,15.41
2019-04-10T09:01:47.248Z,15.32
2019-04-10T09:03:22.478Z,15.30
2019-04-10T09:04:57.352Z,15.26
2019-04-10T09:06:31.738Z,15.18
2019-04-10T09:08:06.248Z,15.14
2019-04-10T09:09:42.233Z,15.09
2019-04-10T09:11:25.571Z,15.00
2019-04-10T09:12:54.537Z,14.79
2019-04-10T09:14:29.514Z,14.61
2019-04-10T09:16:04.554Z,14.45
2019-04-10T09:17:39.675Z,14.26
2019-04-10T09:19:14.287Z,14.21
2019-04-10T09:20:49.098Z,14.14
2019-04-10T09:22:24.636Z,14.05
2019-04-10T09:24:00.310Z,14.04
2019-04-10T09:25:35.879Z,14.01
2019-04-10T09:27:10.969Z,14.00
2019-04-10T09:28:46.549Z,13.98
2019-04-10T09:30:21.298Z,13.94
2019-04-10T09:31:55.807Z,13.87
2019-04-10T09:33:32.209Z,13.89
2019-04-10T09:35:08.778Z,13.87
2019-04-10T09:36:43.717Z,13.89
2019-04-10T09:38:18.839Z,13.91
2019-04-10T09:39:54.872Z,13.88
2019-04-10T09:41:30.022Z,13.82
2019-04-10T09:43:05.095Z,13.71
2019-04-10T09:44:40.089Z,13.56
2019-04-10T09:46:14.445Z,13.53
2019-04-10T09:47:48.799Z,13.52
2019-04-10T09:49:33.778Z,13.52
2019-04-10T09:51:00.199Z,13.51
2019-04-10T09:52:35.660Z,13.48
2019-04-10T09:54:10.439Z,13.48
2019-04-10T09:55:46.857Z,13.48
2019-04-10T09:57:22.470Z,13.46
2019-04-10T09:58:57.049Z,13.48
2019-04-10T10:00:33.956Z,13.51
2019-04-10T10:02:09.244Z,13.59
2019-04-10T10:03:44.434Z,13.60
2019-04-10T10:05:20.289Z,13.57
2019-04-10T10:06:55.725Z,13.58
2019-04-10T10:08:31.610Z,13.61
2019-04-10T10:10:08.728Z,13.61
2019-04-10T10:11:43.514Z,13.63
2019-04-10T10:13:17.765Z,13.67
2019-04-10T10:14:52.122Z,13.72
2019-04-10T10:16:27.482Z,13.78
2019-04-10T10:18:03.386Z,13.83
2019-04-10T10:19:39.157Z,13.84
2019-04-10T10:21:14.425Z,13.80
2019-04-10T10:22:49.508Z,13.79
2019-04-10T10:24:24.648Z,13.80
2019-04-10T10:26:01.652Z,13.83
2019-04-10T10:27:36.159Z,13.84
2019-04-10T10:29:11.303Z,13.86
2019-04-10T10:30:47.297Z,13.90
2019-04-10T10:32:21.799Z,13.94
2019-04-10T10:33:56.532Z,13.97
2019-04-10T10:35:31.376Z,14.01
2019-04-10T10:37:08.304Z,14.05
2019-04-10T10:38:43.357Z,14.03
2019-04-10T10:40:19.296Z,14.01
2019-04-10T10:41:54.447Z,14.03
2019-04-10T10:43:29.250Z,14.03
2019-04-10T10:45:05.168Z,14.02
2019-04-10T10:46:39.775Z,14.06
2019-04-10T10:48:15.452Z,14.13
2019-04-10T10:49:50.792Z,14.14
2019-04-10T10:51:25.067Z,14.13
2019-04-10T10:52:59.774Z,14.12
2019-04-10T10:54:34.933Z,14.16
2019-04-10T10:56:09.867Z,14.16
2019-04-10T10:57:44.451Z,14.14
2019-04-10T10:59:19.609Z,14.13
2019-04-10T11:00:54.018Z,14.10
2019-04-10T11:02:29.570Z,14.16
2019-04-10T11:04:04.749Z,14.20
2019-04-10T11:05:39.189Z,14.20
2019-04-10T11:07:14.437Z,14.22
2019-04-10T11:08:49.412Z,14.20
2019-04-10T11:10:27.069Z,14.28
2019-04-10T11:12:00.124Z,14.42
2019-04-10T11:13:34.787Z,14.51
2019-04-10T11:15:10.082Z,14.70
2019-04-10T11:16:46.974Z,14.76
2019-04-10T11:18:22.240Z,14.82
2019-04-10T11:19:56.511Z,14.85
2019-04-10T11:21:32.397Z,14.89
2019-04-10T11:23:06.913Z,14.87
2019-04-10T11:24:42.763Z,14.91
2019-04-10T11:26:20.534Z,14.95
2019-04-10T11:27:54.007Z,15.08
2019-04-10T11:29:28.743Z,15.16
2019-04-10T11:31:03.260Z,15.26
2019-04-10T11:32:38.233Z,15.36
2019-04-10T11:34:14.042Z,15.42
2019-04-10T11:35:48.588Z,15.43
2019-04-10T11:37:34.294Z,15.47
2019-04-10T11:39:10.616Z,15.55
2019-04-10T11:40:35.084Z,15.73
2019-04-10T11:42:10.077Z,15.89
2019-04-10T11:43:46.304Z,16.05
2019-04-10T11:45:20.765Z,16.19
2019-04-10T11:46:56.865Z,16.22
2019-04-10T11:48:32.310Z,16.22
2019-04-10T11:51:46.569Z,16.45
2019-04-10T11:53:21.498Z,16.61
2019-04-10T11:55:05.118Z,16.90
2019-04-10T11:56:33.775Z,16.98
2019-04-10T11:58:08.579Z,17.22
2019-04-10T11:59:48.459Z,17.47
2019-04-10T12:01:22.834Z,17.50
2019-04-10T12:02:58.745Z,17.52
2019-04-10T12:04:44.495Z,17.51
2019-04-10T12:06:08.136Z,17.56
2019-04-10T12:09:58.703Z,17.66
2019-04-10T12:12:30.507Z,17.76
2019-04-10T12:14:05.044Z,17.75
2019-04-10T12:15:40.692Z,17.59
2019-04-10T12:17:16.036Z,17.53
2019-04-10T12:18:50.964Z,17.51
2019-04-10T12:20:25.378Z,17.59
2019-04-10T12:21:59.667Z,17.66
2019-04-10T12:23:34.733Z,17.73
2019-04-10T12:25:12.388Z,17.86
2019-04-10T12:26:46.158Z,17.87
2019-04-10T12:28:20.413Z,17.92
2019-04-10T12:29:55.106Z,18.17
2019-04-10T12:31:30.503Z,18.37
2019-04-10T12:33:05.399Z,18.47
2019-04-10T12:34:40.301Z,18.50
2019-04-10T12:36:14.798Z,18.54
2019-04-10T12:37:58.626Z,18.53
2019-04-10T12:39:25.523Z,18.54
2019-04-10T12:40:59.866Z,18.66
2019-04-10T12:42:34.548Z,18.95
2019-04-10T12:44:09.590Z,19.09
2019-04-10T12:45:44.387Z,19.19
2019-04-10T12:47:19.001Z,19.39
2019-04-10T12:48:53.284Z,19.27
2019-04-10T12:50:28.693Z,19.19
2019-04-10T12:52:03.165Z,18.96
2019-04-10T12:53:38.063Z,18.40
2019-04-10T12:55:12.782Z,18.02
2019-04-10T12:56:48.470Z,17.77
2019-04-10T12:58:23.069Z,17.55
2019-04-10T13:00:01.216Z,17.35
2019-04-10T13:01:33.381Z,17.20
2019-04-10T13:03:08.327Z,17.07
2019-04-10T13:04:44.843Z,16.82
2019-04-10T13:06:20.001Z,16.56
2019-04-10T13:07:54.557Z,16.47
2019-04-10T13:09:29.611Z,16.46
2019-04-10T13:11:04.498Z,16.46
2019-04-10T13:12:39.747Z,16.45
2019-04-10T13:14:14.752Z,16.37
2019-04-10T13:15:49.761Z,16.26
2019-04-10T13:17:24.832Z,16.19
2019-04-10T13:19:00.577Z,16.13
2019-04-10T13:20:35.194Z,16.12
2019-04-10T13:22:09.628Z,16.15
2019-04-10T13:23:44.753Z,16.18
2019-04-10T13:25:19.370Z,16.19
2019-04-10T13:26:55.043Z,16.19
2019-04-10T13:28:29.709Z,16.21
2019-04-10T13:30:12.570Z,16.24
2019-04-10T13:31:46.715Z,16.25
2019-04-10T13:33:21.290Z,16.25
2019-04-10T13:34:56.225Z,16.29
2019-04-10T13:36:31.374Z,16.28
2019-04-10T13:38:06.793Z,16.23
2019-04-10T13:39:41.397Z,16.23
2019-04-10T13:41:16.468Z,16.23
2019-04-10T13:42:51.576Z,16.22
2019-04-10T13:44:26.645Z,16.23
2019-04-10T13:46:01.005Z,16.24
2019-04-10T13:47:35.575Z,16.21
2019-04-10T13:49:09.838Z,16.12
2019-04-10T13:50:44.542Z,16.09
2019-04-10T13:52:18.759Z,16.14
2019-04-10T13:53:55.111Z,16.19
2019-04-10T13:55:30.440Z,16.25
2019-04-10T13:57:05.709Z,16.26
2019-04-10T13:58:40.369Z,16.26
2019-04-10T14:00:23.817Z,16.33
2019-04-10T14:01:58.492Z,16.35
2019-04-10T14:03:32.823Z,16.46
2019-04-10T14:05:11.761Z,16.59
2019-04-10T14:06:49.136Z,16.75
2019-04-10T14:08:33.772Z,16.84
2019-04-10T14:09:58.682Z,16.93
2019-04-10T14:11:33.344Z,17.07
2019-04-10T14:13:07.944Z,17.23
2019-04-10T14:14:42.503Z,17.39
2019-04-10T14:16:17.022Z,17.52
2019-04-10T14:17:52.125Z,17.68
2019-04-10T14:19:28.258Z,17.75
2019-04-10T14:21:07.509Z,17.88
2019-04-10T14:22:40.098Z,17.92
2019-04-10T14:24:14.386Z,17.95
2019-04-10T14:26:06.504Z,17.90
2019-04-10T14:27:42.587Z,17.99
2019-04-10T14:29:18.949Z,18.00
2019-04-10T14:30:55.712Z,17.91
2019-04-10T14:32:31.958Z,17.76
2019-04-10T14:34:07.335Z,17.69
2019-04-10T14:35:43.121Z,17.65
2019-04-10T14:37:17.607Z,17.68
2019-04-10T14:38:55.002Z,17.73
2019-04-10T14:40:30.498Z,17.76
2019-04-10T14:42:04.864Z,17.77
2019-04-10T14:43:39.737Z,17.78
2019-04-10T14:45:14.502Z,17.84
2019-04-10T14:46:49.709Z,17.93
2019-04-10T14:48:24.450Z,17.99
2019-04-10T14:49:59.631Z,17.93
2019-04-10T14:51:34.752Z,17.88
2019-04-10T14:53:09.651Z,17.74
2019-04-10T14:54:44.014Z,17.60
2019-04-10T14:56:18.254Z,17.55
2019-04-10T14:57:53.161Z,17.61
2019-04-10T14:59:28.220Z,17.62
2019-04-10T15:01:03.319Z,17.72
2019-04-10T15:02:39.665Z,17.78
2019-04-10T15:04:15.057Z,17.75
2019-04-10T15:05:51.439Z,17.84
2019-04-10T15:07:26.877Z,17.92
2019-04-10T15:09:01.401Z,18.01
2019-04-10T15:10:36.084Z,18.07
2019-04-10T15:12:10.444Z,18.11
2019-04-10T15:13:45.679Z,18.11
2019-04-10T15:15:20.556Z,18.00
2019-04-10T15:17:01.795Z,17.89
2019-04-10T15:18:33.089Z,17.90
2019-04-10T15:20:07.367Z,17.85
2019-04-10T15:21:41.598Z,17.82
2019-04-10T15:23:16.312Z,17.84
2019-04-10T15:24:51.633Z,17.92
2019-04-10T15:26:26.746Z,17.86
2019-04-10T15:28:02.145Z,17.80
2019-04-10T15:29:37.033Z,17.83
2019-04-10T15:31:11.381Z,17.91
2019-04-10T15:32:45.625Z,17.98
2019-04-10T15:34:20.482Z,18.05
2019-04-10T15:35:55.475Z,18.19
2019-04-10T15:37:31.180Z,18.18
2019-04-10T15:39:08.697Z,18.20
2019-04-10T15:40:44.068Z,18.15
2019-04-10T15:42:19.735Z,18.16
2019-04-10T15:43:55.561Z,18.19
2019-04-10T15:45:30.213Z,18.22
2019-04-10T15:47:13.644Z,18.23
2019-04-10T15:48:41.890Z,18.22
2019-04-10T15:50:16.549Z,18.12
2019-04-10T15:51:50.832Z,18.08
2019-04-10T15:53:26.391Z,18.06
2019-04-10T15:55:01.589Z,18.04
2019-04-10T15:56:36.171Z,18.01
2019-04-10T15:58:10.830Z,17.89
2019-04-10T15:59:46.307Z,17.78
2019-04-10T16:01:21.687Z,17.71
2019-04-10T16:02:57.246Z,17.65
2019-04-10T16:04:31.787Z,17.58
2019-04-10T16:06:06.236Z,17.55
2019-04-10T16:07:40.776Z,17.41
2019-04-10T16:09:15.078Z,17.28
2019-04-10T16:10:55.041Z,17.11
2019-04-10T16:12:30.370Z,16.98
2019-04-10T16:14:17.071Z,16.91
2019-04-10T16:15:43.577Z,16.84
2019-04-10T16:17:22.879Z,16.75
2019-04-10T16:19:11.964Z,16.64
2019-04-10T16:20:47.792Z,16.58
2019-04-10T16:22:27.626Z,16.51
2019-04-10T16:24:07.141Z,16.43
2019-04-10T16:25:44.765Z,16.34
2019-04-10T16:27:20.170Z,16.29
2019-04-10T16:28:55.672Z,16.22
2019-04-10T16:30:30.683Z,16.16
2019-04-10T16:32:06.829Z,16.09
2019-04-10T16:33:41.363Z,16.04
2019-04-10T16:35:15.815Z,16.01
2019-04-10T16:36:52.133Z,15.97
2019-04-10T16:38:26.810Z,15.94
2019-04-10T16:40:04.447Z,15.89
2019-04-10T16:41:38.583Z,15.87
2019-04-10T16:43:13.924Z,15.83
2019-04-10T16:44:49.182Z,15.80
2019-04-10T16:46:23.800Z,15.75
2019-04-10T16:47:58.808Z,15.73
2019-04-10T16:49:33.239Z,15.70
2019-04-10T16:51:08.015Z,15.69
2019-04-10T16:52:42.425Z,15.67
2019-04-10T16:54:18.641Z,15.65
2019-04-10T16:55:53.382Z,15.61
2019-04-10T16:57:29.029Z,15.55
2019-04-10T16:59:04.525Z,15.49
2019-04-10T17:00:39.699Z,15.41
2019-04-10T17:02:15.651Z,15.36
2019-04-10T17:03:50.099Z,15.29
2019-04-10T17:05:25.966Z,15.23
2019-04-10T17:07:00.833Z,15.16
2019-04-10T17:08:37.378Z,15.07
2019-04-10T17:10:18.385Z,15.00
2019-04-10T17:11:49.286Z,14.93
2019-04-10T17:13:24.564Z,14.84
2019-04-10T17:14:59.607Z,14.74
2019-04-10T17:16:34.262Z,14.68
2019-04-10T17:18:08.737Z,14.62
2019-04-10T17:19:46.363Z,14.56
2019-04-10T17:21:19.912Z,14.49
2019-04-10T17:22:56.217Z,14.43
2019-04-10T17:24:31.421Z,14.37
2019-04-10T17:26:08.678Z,14.32
2019-04-10T17:27:43.793Z,14.25
2019-04-10T17:29:18.876Z,14.19
2019-04-10T17:30:53.942Z,14.13
2019-04-10T17:32:29.159Z,14.09
2019-04-10T17:34:03.610Z,14.05
2019-04-10T17:35:38.396Z,14.02
2019-04-10T17:37:13.655Z,13.98
2019-04-10T17:38:48.964Z,13.93
2019-04-10T17:40:31.977Z,13.88
2019-04-10T17:42:00.029Z,13.83
2019-04-10T17:43:35.100Z,13.79
2019-04-10T17:45:12.173Z,13.74
2019-04-10T17:46:47.038Z,13.70
2019-04-10T17:48:21.995Z,13.61
2019-04-10T17:50:01.031Z,13.53
2019-04-10T17:51:36.327Z,13.48
2019-04-10T17:53:11.480Z,13.44
2019-04-10T17:54:47.106Z,13.39
2019-04-10T17:56:22.267Z,13.36
2019-04-10T17:57:58.144Z,13.31
2019-04-10T17:59:32.767Z,13.31
2019-04-10T18:01:08.985Z,13.30
2019-04-10T18:02:43.293Z,13.28
2019-04-10T18:04:17.935Z,13.28
2019-04-10T18:05:55.039Z,13.25
2019-04-10T18:07:30.186Z,13.24
2019-04-10T18:09:07.869Z,13.23
2019-04-10T18:10:48.752Z,13.20
2019-04-10T18:12:19.401Z,13.16
2019-04-10T18:13:55.254Z,13.13
2019-04-10T18:15:30.289Z,13.07
2019-04-10T18:17:06.581Z,13.04
2019-04-10T18:18:44.246Z,12.98
2019-04-10T18:20:19.994Z,12.91
2019-04-10T18:21:56.357Z,12.85
2019-04-10T18:23:31.491Z,12.79
2019-04-10T18:25:07.623Z,12.76
2019-04-10T18:26:42.234Z,12.70
2019-04-10T18:28:17.194Z,12.65
2019-04-10T18:29:51.807Z,12.61
2019-04-10T18:31:28.112Z,12.57
2019-04-10T18:33:05.085Z,12.53
2019-04-10T18:34:40.359Z,12.50
2019-04-10T18:36:15.373Z,12.44
2019-04-10T18:37:49.971Z,12.41
2019-04-10T18:39:24.638Z,12.37
2019-04-10T18:41:03.415Z,12.34
2019-04-10T18:42:35.822Z,12.30
2019-04-10T18:44:10.981Z,12.25
2019-04-10T18:45:57.468Z,12.23
2019-04-10T18:47:21.261Z,12.22
2019-04-10T18:48:56.762Z,12.23
2019-04-10T18:50:32.153Z,12.22
2019-04-10T18:52:10.886Z,12.20
2019-04-10T18:53:45.746Z,12.13
2019-04-10T18:55:20.448Z,12.02
2019-04-10T18:56:55.675Z,11.92
2019-04-10T18:58:31.904Z,11.82
2019-04-10T19:00:28.994Z,11.75
2019-04-10T19:02:13.889Z,11.67
2019-04-10T19:04:00.643Z,11.60
2019-04-10T19:05:33.984Z,11.54
2019-04-10T19:07:09.142Z,11.48
2019-04-10T19:08:43.999Z,11.47
2019-04-10T19:10:18.375Z,11.41
2019-04-10T19:11:52.844Z,11.37
2019-04-10T19:13:27.256Z,11.32
2019-04-10T19:15:01.514Z,11.26
2019-04-10T19:16:36.007Z,11.17
2019-04-10T19:18:11.911Z,11.11
2019-04-10T19:19:46.630Z,11.06
2019-04-10T19:21:21.761Z,11.02
2019-04-10T19:22:56.806Z,10.97
2019-04-10T19:24:30.737Z,10.91
2019-04-10T19:26:08.501Z,10.86
2019-04-10T19:27:42.262Z,10.80
2019-04-10T19:29:17.131Z,10.75
2019-04-10T19:31:08.055Z,10.71
2019-04-10T19:32:33.367Z,10.66
2019-04-10T19:34:09.434Z,10.61
2019-04-10T19:35:44.043Z,10.59
2019-04-10T19:37:18.562Z,10.57
2019-04-10T19:38:52.465Z,10.54
2019-04-10T19:40:27.946Z,10.52
2019-04-10T19:42:02.866Z,10.51
2019-04-10T19:43:37.979Z,10.49
2019-04-10T19:45:12.594Z,10.48
2019-04-10T19:46:48.019Z,10.45
2019-04-10T19:48:23.390Z,10.43
2019-04-10T19:49:59.150Z,10.41
2019-04-10T19:51:32.924Z,10.39
2019-04-10T19:53:07.153Z,10.38
2019-04-10T19:54:41.186Z,10.36
2019-04-10T19:56:16.052Z,10.36
2019-04-10T19:57:50.597Z,10.37
2019-04-10T19:59:25.013Z,10.35
2019-04-10T20:00:59.662Z,10.32
2019-04-10T20:02:34.976Z,10.29
2019-04-10T20:04:10.379Z,10.24
2019-04-10T20:05:44.099Z,10.21
2019-04-10T20:07:20.826Z,10.17
2019-04-10T20:08:55.647Z,10.12
2019-04-10T20:10:30.347Z,10.08
2019-04-10T20:12:04.560Z,10.03
2019-04-10T20:13:39.284Z,9.99
2019-04-10T20:15:14.097Z,9.95
2019-04-10T20:16:49.369Z,9.93
2019-04-10T20:18:24.508Z,9.90
2019-04-10T20:19:59.919Z,9.86
2019-04-10T20:21:34.498Z,9.84
2019-04-10T20:23:09.687Z,9.81
2019-04-10T20:24:43.728Z,9.79
2019-04-10T20:26:17.629Z,9.77
2019-04-10T20:27:52.121Z,9.73
2019-04-10T20:29:26.697Z,9.70
2019-04-10T20:31:01.345Z,9.68
2019-04-10T20:32:36.370Z,9.66
2019-04-10T20:34:11.449Z,9.66